Time;durP1;ratioP1;P1;durP2;ratioP2;P2;SDS_P1;SDS_P2;PMS_P1;PMS_P2;Temp;Humidity;BMP_temperature;BMP_pressure;BME280_temperature;BME280_humidity;BME280_pressure;Samples;Min_cycle;Max_cycle;Signal;HPM_P1;HPM_P2
2022/07/31 00:00:09;;;;;;;3.83;3.53;;;24.90;65.10;;;;;;5036492;28;20461;-86
2022/07/31 00:02:36;;;;;;;4.70;3.43;;;25.00;64.60;;;;;;5043443;28;20577;-85
2022/07/31 00:05:03;;;;;;;3.43;3.13;;;24.90;64.40;;;;;;5037189;28;20467;-84
2022/07/31 00:07:30;;;;;;;4.60;3.63;;;24.90;63.30;;;;;;5033956;28;20977;-84
2022/07/31 00:09:57;;;;;;;3.40;3.10;;;24.90;63.40;;;;;;5034647;28;20504;-85
2022/07/31 00:12:25;;;;;;;5.10;3.60;;;24.60;63.60;;;;;;5036134;28;20493;-83
2022/07/31 00:14:52;;;;;;;3.30;2.97;;;24.50;64.10;;;;;;5019681;28;20457;-84
2022/07/31 00:17:19;;;;;;;4.23;3.93;;;24.40;64.10;;;;;;5034439;28;20449;-83
2022/07/31 00:19:49;;;;;;;4.17;3.07;;;24.50;64.20;;;;;;5033748;28;20469;-84
2022/07/31 00:22:15;;;;;;;8.20;3.30;;;24.50;64.20;;;;;;5046196;28;20781;-84
2022/07/31 00:24:42;;;;;;;3.80;3.50;;;24.50;64.90;;;;;;5039376;28;21049;-87
2022/07/31 00:27:09;;;;;;;3.93;3.53;;;24.60;64.50;;;;;;5039480;28;20568;-83
2022/07/31 00:29:36;;;;;;;3.40;2.70;;;24.70;64.80;;;;;;5029856;28;20668;-86
2022/07/31 00:32:04;;;;;;;3.20;2.90;;;24.60;64.70;;;;;;5044689;28;20872;-86
2022/07/31 00:34:30;;;;;;;4.03;3.60;;;24.90;64.40;;;;;;5039068;28;20460;-84
2022/07/31 00:36:57;;;;;;;4.47;3.43;;;24.90;63.70;;;;;;5037327;28;20572;-86
2022/07/31 00:39:24;;;;;;;4.13;3.73;;;24.80;63.80;;;;;;5043248;28;20614;-85
2022/07/31 00:41:50;;;;;;;4.10;3.70;;;24.70;64.50;;;;;;5040213;28;20491;-85
2022/07/31 00:44:18;;;;;;;3.87;3.40;;;24.70;65.00;;;;;;5038303;28;20972;-84
2022/07/31 00:46:44;;;;;;;3.50;3.30;;;24.60;65.40;;;;;;5046924;28;20485;-85
2022/07/31 00:49:11;;;;;;;3.73;3.40;;;24.50;65.80;;;;;;5051692;28;20477;-86
2022/07/31 00:51:39;;;;;;;7.43;4.57;;;24.30;66.20;;;;;;5049185;28;20495;-86
2022/07/31 00:54:07;;;;;;;3.33;2.97;;;24.10;66.50;;;;;;5031996;28;20482;-85
2022/07/31 00:56:35;;;;;;;4.03;3.63;;;23.90;67.00;;;;;;5058772;28;20457;-84
2022/07/31 00:59:02;;;;;;;5.27;3.43;;;23.80;67.70;;;;;;5065301;28;20439;-82
2022/07/31 01:01:29;;;;;;;7.10;4.07;;;23.70;68.10;;;;;;5048114;28;20540;-85
2022/07/31 01:03:57;;;;;;;3.77;3.57;;;23.70;68.60;;;;;;5059072;28;20445;-87
2022/07/31 01:06:23;;;;;;;3.70;3.40;;;23.50;69.10;;;;;;5063477;28;20443;-83
2022/07/31 01:08:50;;;;;;;4.13;3.37;;;23.40;69.90;;;;;;5064765;28;20449;-85
2022/07/31 01:11:47;;;;;;;4.20;3.80;;;23.40;70.40;;;;;;5058522;28;20467;-85
2022/07/31 01:14:16;;;;;;;4.43;3.90;;;23.40;70.90;;;;;;5062427;28;20494;-87
2022/07/31 01:16:45;;;;;;;4.83;4.23;;;23.30;71.60;;;;;;5064936;28;20429;-85
2022/07/31 01:19:36;;;;;;;4.83;4.10;;;23.50;72.40;;;;;;5055479;28;20448;-84
2022/07/31 01:22:16;;;;;;;4.23;3.97;;;23.40;72.20;;;;;;5044769;28;20472;-84
2022/07/31 01:25:10;;;;;;;5.47;4.20;;;23.50;72.30;;;;;;5041608;28;20523;-84
2022/07/31 01:27:55;;;;;;;4.53;4.13;;;23.30;72.90;;;;;;5046792;28;20478;-85
2022/07/31 01:30:27;;;;;;;4.23;3.90;;;23.20;74.00;;;;;;5034146;28;20486;-84
2022/07/31 01:33:01;;;;;;;4.33;3.90;;;23.20;74.50;;;;;;5047245;28;20441;-87
2022/07/31 01:35:31;;;;;;;4.40;3.50;;;23.10;75.00;;;;;;5054313;28;20452;-85
2022/07/31 01:38:11;;;;;;;3.67;3.37;;;23.30;75.10;;;;;;5043952;28;20430;-85
2022/07/31 01:40:46;;;;;;;4.50;4.20;;;23.20;75.30;;;;;;5052594;28;20460;-88
2022/07/31 01:43:20;;;;;;;4.33;3.60;;;23.50;75.10;;;;;;5037345;28;20529;-84
2022/07/31 01:45:55;;;;;;;4.97;4.40;;;23.30;75.30;;;;;;5038032;28;20465;-85
2022/07/31 01:48:25;;;;;;;3.67;3.37;;;23.30;75.40;;;;;;5049433;28;20449;-87
2022/07/31 01:50:57;;;;;;;3.60;3.10;;;23.10;76.10;;;;;;5054175;28;20498;-87
2022/07/31 01:53:25;;;;;;;4.23;3.83;;;23.10;76.30;;;;;;5049432;28;20524;-86
2022/07/31 01:55:56;;;;;;;4.10;3.50;;;23.20;76.10;;;;;;5050550;28;20445;-85
2022/07/31 01:58:33;;;;;;;4.60;3.80;;;23.10;75.90;;;;;;5016268;28;20458;-84
2022/07/31 02:01:02;;;;;;;3.93;3.63;;;23.00;76.60;;;;;;5041761;28;20481;-87
2022/07/31 02:03:31;;;;;;;3.87;3.47;;;22.80;77.60;;;;;;5037614;28;20457;-83
2022/07/31 02:06:09;;;;;;;3.30;3.10;;;22.90;77.40;;;;;;5039090;28;20457;-84
2022/07/31 02:08:37;;;;;;;3.60;3.30;;;22.90;77.80;;;;;;5039863;28;20480;-87
2022/07/31 02:11:04;;;;;;;5.90;4.20;;;23.00;77.60;;;;;;5043726;28;20481;-87
2022/07/31 02:13:32;;;;;;;4.20;3.80;;;22.90;77.80;;;;;;5045816;28;20457;-85
2022/07/31 02:16:00;;;;;;;4.43;3.40;;;22.90;78.00;;;;;;5052852;28;20449;-86
2022/07/31 02:18:27;;;;;;;3.90;3.70;;;23.00;78.90;;;;;;5041629;28;20891;-85
2022/07/31 02:20:55;;;;;;;3.90;3.50;;;23.00;78.40;;;;;;5037238;28;20485;-86
2022/07/31 02:23:22;;;;;;;3.90;3.60;;;22.80;78.90;;;;;;5022101;28;20462;-86
2022/07/31 02:25:49;;;;;;;4.70;4.30;;;22.90;79.90;;;;;;5035503;28;20457;-86
2022/07/31 02:28:21;;;;;;;3.80;3.50;;;22.90;79.50;;;;;;5034161;28;20464;-85
2022/07/31 02:30:49;;;;;;;3.90;3.60;;;22.90;79.70;;;;;;5020659;28;20491;-84
2022/07/31 02:33:19;;;;;;;3.70;3.40;;;22.80;80.20;;;;;;5041696;28;20472;-85
2022/07/31 02:35:52;;;;;;;4.40;3.90;;;22.80;80.10;;;;;;5030947;28;20830;-85
2022/07/31 02:38:25;;;;;;;3.53;3.30;;;22.80;80.50;;;;;;5026774;28;20460;-87
2022/07/31 02:40:55;;;;;;;4.77;4.03;;;22.60;81.20;;;;;;5020087;28;20477;-85
2022/07/31 02:43:24;;;;;;;3.87;3.47;;;22.70;81.40;;;;;;5029083;28;20482;-86
2022/07/31 02:45:52;;;;;;;4.00;3.70;;;22.60;81.70;;;;;;5014043;28;20457;-85
2022/07/31 02:48:19;;;;;;;8.27;4.23;;;22.70;81.50;;;;;;5041379;28;20519;-86
2022/07/31 02:50:46;;;;;;;4.13;3.83;;;22.80;81.20;;;;;;5037658;28;20488;-85
2022/07/31 02:53:13;;;;;;;4.00;3.60;;;22.50;81.30;;;;;;5025855;28;20513;-86
2022/07/31 02:55:44;;;;;;;4.70;4.13;;;22.60;81.80;;;;;;5037970;28;20462;-87
2022/07/31 02:58:11;;;;;;;4.30;4.00;;;22.60;81.90;;;;;;5042258;28;20481;-86
2022/07/31 03:00:38;;;;;;;3.67;3.37;;;22.70;81.30;;;;;;5032663;28;20483;-84
2022/07/31 03:03:05;;;;;;;4.73;4.33;;;22.60;80.70;;;;;;5034413;28;20437;-83
2022/07/31 03:05:31;;;;;;;5.37;3.97;;;22.50;81.70;;;;;;5040849;28;20537;-84
2022/07/31 03:07:58;;;;;;;4.90;3.80;;;22.30;82.70;;;;;;5045588;28;20464;-85
2022/07/31 03:10:26;;;;;;;4.73;4.30;;;22.40;84.10;;;;;;5053126;28;20545;-86
2022/07/31 03:12:54;;;;;;;4.20;3.80;;;22.70;83.70;;;;;;5048196;28;20464;-87
2022/07/31 03:15:24;;;;;;;6.73;4.00;;;22.60;82.40;;;;;;5043610;28;20464;-86
2022/07/31 03:17:52;;;;;;;4.30;3.87;;;22.70;82.40;;;;;;5046362;28;20450;-85
2022/07/31 03:20:19;;;;;;;4.20;3.80;;;22.90;81.50;;;;;;5041703;28;20466;-85
2022/07/31 03:22:45;;;;;;;5.27;3.50;;;22.80;81.10;;;;;;5033798;28;20558;-86
2022/07/31 03:25:12;;;;;;;3.67;3.40;;;22.70;82.20;;;;;;5042764;28;20440;-87
2022/07/31 03:27:47;;;;;;;4.37;3.97;;;22.80;82.60;;;;;;5037639;28;20464;-85
2022/07/31 03:30:23;;;;;;;4.40;3.93;;;22.90;81.80;;;;;;5021942;28;20469;-84
2022/07/31 03:32:51;;;;;;;4.20;3.80;;;22.80;81.40;;;;;;5041848;28;20446;-83
2022/07/31 03:35:18;;;;;;;3.80;3.60;;;22.70;81.70;;;;;;5039158;28;20461;-85
2022/07/31 03:37:51;;;;;;;5.17;4.67;;;22.60;82.20;;;;;;5021034;28;20447;-84
2022/07/31 03:40:17;;;;;;;8.23;4.20;;;22.80;81.90;;;;;;5039077;28;20457;-85
2022/07/31 03:42:46;;;;;;;4.90;3.80;;;22.80;82.00;;;;;;5040253;28;20493;-83
2022/07/31 03:45:14;;;;;;;5.70;4.07;;;22.80;81.90;;;;;;5031821;28;20524;-84
2022/07/31 03:47:41;;;;;;;3.80;3.50;;;22.60;81.50;;;;;;5030996;28;20453;-86
2022/07/31 03:50:09;;;;;;;4.63;3.73;;;22.60;81.80;;;;;;5035855;28;20492;-85
2022/07/31 03:52:41;;;;;;;6.27;4.10;;;22.90;81.50;;;;;;5028709;28;20634;-86
2022/07/31 03:55:17;;;;;;;4.30;3.83;;;23.00;80.20;;;;;;5041788;28;20492;-85
2022/07/31 03:57:45;;;;;;;4.73;3.60;;;23.10;79.60;;;;;;5046358;28;20457;-88
2022/07/31 04:00:14;;;;;;;4.40;3.90;;;22.90;79.60;;;;;;5032579;28;20464;-84
2022/07/31 04:02:43;;;;;;;4.07;3.77;;;22.90;80.00;;;;;;5033784;28;20480;-84
2022/07/31 04:05:10;;;;;;;4.47;3.60;;;22.80;80.10;;;;;;5014595;28;20453;-85
2022/07/31 04:07:37;;;;;;;4.70;3.43;;;22.80;80.10;;;;;;5038583;28;20462;-84
2022/07/31 04:10:04;;;;;;;5.00;4.30;;;22.90;80.20;;;;;;5041278;28;20495;-85
2022/07/31 04:12:30;;;;;;;3.73;3.43;;;22.90;80.10;;;;;;5027258;28;20468;-87
2022/07/31 04:15:09;;;;;;;4.07;3.77;;;23.00;79.90;;;;;;5048830;28;20549;-87
2022/07/31 04:17:42;;;;;;;5.80;3.90;;;23.00;79.90;;;;;;5049799;28;20504;-85
2022/07/31 04:20:33;;;;;;;3.93;3.53;;;23.00;79.30;;;;;;5051726;28;20533;-84
2022/07/31 04:22:59;;;;;;;4.33;3.93;;;23.30;78.00;;;;;;5052538;28;20464;-84
2022/07/31 04:25:26;;;;;;;3.63;3.33;;;23.40;76.90;;;;;;5039501;28;20537;-86
2022/07/31 04:27:55;;;;;;;3.60;3.30;;;23.40;76.80;;;;;;5043149;28;20449;-86
2022/07/31 04:30:23;;;;;;;3.73;3.43;;;23.40;76.60;;;;;;5021368;28;20480;-86
2022/07/31 04:32:49;;;;;;;4.80;4.30;;;23.40;76.50;;;;;;5027674;28;20464;-86
2022/07/31 04:35:16;;;;;;;4.57;3.70;;;23.50;76.60;;;;;;5054139;28;20448;-86
2022/07/31 04:37:43;;;;;;;4.73;3.40;;;23.50;75.80;;;;;;5046604;28;20965;-85
2022/07/31 04:40:14;;;;;;;4.30;4.00;;;23.50;78.90;;;;;;5038601;28;20473;-85
2022/07/31 04:42:41;;;;;;;5.00;4.60;;;23.40;80.80;;;;;;5040554;28;20534;-86
2022/07/31 04:45:08;;;;;;;5.10;4.30;;;23.30;82.60;;;;;;5043478;28;20449;-85
2022/07/31 04:47:36;;;;;;;4.60;4.30;;;23.30;83.00;;;;;;5023042;28;20460;-85
2022/07/31 04:50:03;;;;;;;4.30;3.90;;;23.50;82.50;;;;;;5038084;28;20499;-86
2022/07/31 04:52:30;;;;;;;4.27;3.80;;;23.40;81.00;;;;;;5038555;28;21260;-84
2022/07/31 04:54:56;;;;;;;5.07;4.03;;;23.20;81.20;;;;;;5038882;28;20453;-86
2022/07/31 04:57:23;;;;;;;4.90;4.33;;;23.20;81.70;;;;;;5039793;28;20458;-84
2022/07/31 04:59:50;;;;;;;5.50;3.53;;;23.20;82.50;;;;;;5039257;28;20465;-85
2022/07/31 05:02:24;;;;;;;6.43;3.97;;;23.00;82.30;;;;;;5039857;28;20485;-84
2022/07/31 05:04:51;;;;;;;5.33;3.33;;;23.00;80.60;;;;;;5040573;28;20518;-84
2022/07/31 05:07:18;;;;;;;4.10;2.93;;;23.10;79.10;;;;;;5036200;28;20906;-85
2022/07/31 05:09:44;;;;;;;3.80;3.50;;;23.20;78.70;;;;;;5024675;28;20464;-85
2022/07/31 05:12:11;;;;;;;4.30;3.90;;;23.30;77.80;;;;;;5022973;28;20492;-86
2022/07/31 05:14:41;;;;;;;3.50;3.10;;;23.20;78.10;;;;;;5045555;28;20607;-85
2022/07/31 05:17:07;;;;;;;5.00;3.83;;;23.10;78.10;;;;;;5041300;28;20797;-87
2022/07/31 05:19:37;;;;;;;4.80;3.43;;;23.10;78.60;;;;;;5041981;28;20460;-85
2022/07/31 05:22:15;;;;;;;3.40;3.07;;;23.00;78.60;;;;;;5034795;28;20575;-85
2022/07/31 05:24:53;;;;;;;3.27;2.97;;;23.00;78.80;;;;;;5037083;28;20469;-85
2022/07/31 05:27:20;;;;;;;3.60;3.30;;;23.00;78.70;;;;;;5041950;28;20552;-85
2022/07/31 05:29:46;;;;;;;3.70;2.97;;;23.10;79.00;;;;;;5043147;28;20507;-84
2022/07/31 05:32:13;;;;;;;3.13;2.50;;;23.10;79.10;;;;;;5041364;28;20496;-84
2022/07/31 05:34:40;;;;;;;5.70;3.60;;;23.00;79.30;;;;;;5041826;28;20670;-84
2022/07/31 05:37:06;;;;;;;5.77;2.70;;;23.10;79.60;;;;;;5041853;28;20446;-87
2022/07/31 05:39:35;;;;;;;5.50;2.37;;;23.10;79.60;;;;;;5033976;28;20450;-85
2022/07/31 05:42:02;;;;;;;3.70;2.63;;;23.10;79.60;;;;;;5051758;28;20530;-85
2022/07/31 05:44:28;;;;;;;2.87;2.67;;;23.10;79.80;;;;;;5038241;28;20457;-84
2022/07/31 05:46:55;;;;;;;3.23;2.53;;;23.10;79.70;;;;;;5035512;28;20457;-84
2022/07/31 05:49:22;;;;;;;5.10;2.90;;;23.10;79.80;;;;;;5030164;28;20516;-88
2022/07/31 05:51:52;;;;;;;2.77;2.17;;;23.10;80.00;;;;;;5032161;28;20234;-84
2022/07/31 05:54:20;;;;;;;4.17;2.70;;;23.20;80.00;;;;;;5047480;28;20492;-84
2022/07/31 05:56:48;;;;;;;3.80;2.60;;;23.30;80.20;;;;;;5041853;28;20489;-86
2022/07/31 05:59:14;;;;;;;3.90;3.07;;;23.10;80.40;;;;;;5031212;28;20445;-84
2022/07/31 06:01:42;;;;;;;4.30;2.80;;;23.10;80.70;;;;;;5020103;28;20512;-83
2022/07/31 06:04:09;;;;;;;2.50;2.30;;;23.20;81.00;;;;;;5028416;28;20952;-84
2022/07/31 06:06:36;;;;;;;3.63;2.67;;;23.20;81.20;;;;;;5051220;28;20465;-83
2022/07/31 06:09:03;;;;;;;2.73;2.47;;;23.20;81.40;;;;;;5042388;28;20453;-82
2022/07/31 06:11:31;;;;;;;4.40;2.47;;;23.20;81.40;;;;;;5055014;28;20512;-88
2022/07/31 06:13:58;;;;;;;2.50;2.10;;;23.20;81.70;;;;;;5025638;28;20442;-83
2022/07/31 06:16:26;;;;;;;5.10;2.37;;;23.30;81.60;;;;;;5036458;28;20467;-84
2022/07/31 06:18:53;;;;;;;2.30;2.20;;;23.30;81.40;;;;;;5039062;28;20475;-82
2022/07/31 06:21:20;;;;;;;2.70;2.20;;;23.40;81.50;;;;;;5031961;28;20481;-83
2022/07/31 06:23:46;;;;;;;2.57;2.20;;;23.40;81.30;;;;;;5039019;28;20542;-82
2022/07/31 06:26:12;;;;;;;4.37;2.07;;;23.50;81.30;;;;;;5025243;28;20203;-85
2022/07/31 06:28:39;;;;;;;4.43;2.77;;;23.50;81.00;;;;;;5059259;28;20439;-81
2022/07/31 06:31:19;;;;;;;2.67;2.37;;;23.50;80.90;;;;;;5063503;28;20492;-82
2022/07/31 06:33:46;;;;;;;3.20;2.23;;;23.50;80.90;;;;;;5055562;28;20433;-87
2022/07/31 06:36:14;;;;;;;2.73;2.53;;;23.60;80.90;;;;;;5047040;28;20505;-85
2022/07/31 06:38:41;;;;;;;2.40;2.20;;;23.60;80.80;;;;;;5052742;28;20433;-88
2022/07/31 06:41:08;;;;;;;2.60;2.40;;;23.60;81.00;;;;;;5026649;28;20476;-87
2022/07/31 06:43:35;;;;;;;3.90;2.33;;;24.00;80.00;;;;;;5053159;28;20477;-85
2022/07/31 06:46:02;;;;;;;2.67;2.33;;;24.10;79.40;;;;;;5052175;28;20492;-86
2022/07/31 06:48:29;;;;;;;2.73;2.53;;;23.90;79.60;;;;;;5035782;28;20457;-88
2022/07/31 06:50:56;;;;;;;3.00;2.30;;;23.70;80.60;;;;;;5041522;28;20580;-88
2022/07/31 06:53:43;;;;;;;3.33;2.50;;;23.60;81.00;;;;;;5053758;28;21060;-85
2022/07/31 06:56:09;;;;;;;2.20;2.00;;;23.50;81.60;;;;;;5039001;28;20651;-85
2022/07/31 06:58:36;;;;;;;2.97;2.20;;;23.90;81.10;;;;;;5036277;28;20878;-83
2022/07/31 07:01:03;;;;;;;3.50;2.80;;;24.20;80.20;;;;;;5015698;28;20489;-85
2022/07/31 07:03:29;;;;;;;3.50;2.37;;;24.20;79.00;;;;;;5026175;28;20456;-88
2022/07/31 07:05:56;;;;;;;2.80;2.40;;;23.80;80.20;;;;;;5045415;28;20460;-84
2022/07/31 07:08:23;;;;;;;2.83;2.40;;;23.60;81.50;;;;;;5022926;28;20457;-83
2022/07/31 07:10:50;;;;;;;2.37;2.17;;;23.40;82.50;;;;;;5037671;28;20711;-84
2022/07/31 07:13:22;;;;;;;2.63;2.30;;;23.30;82.90;;;;;;5028356;28;20464;-84
2022/07/31 07:16:11;;;;;;;3.10;2.90;;;23.30;83.20;;;;;;5022319;28;20993;-86
2022/07/31 07:18:38;;;;;;;3.23;2.73;;;23.30;83.30;;;;;;5038814;28;20468;-83
2022/07/31 07:21:04;;;;;;;4.83;2.70;;;23.40;83.20;;;;;;5036117;28;21002;-86
2022/07/31 07:23:32;;;;;;;2.83;2.47;;;23.70;81.80;;;;;;5039085;28;20556;-85
2022/07/31 07:25:58;;;;;;;3.20;2.37;;;23.60;82.20;;;;;;5042211;28;20437;-85
2022/07/31 07:28:25;;;;;;;3.73;2.40;;;23.40;82.50;;;;;;5050595;28;20484;-84
2022/07/31 07:30:56;;;;;;;2.17;1.93;;;23.30;82.90;;;;;;5046763;28;20473;-84
2022/07/31 07:33:23;;;;;;;3.17;2.90;;;23.30;83.20;;;;;;5052520;28;20485;-85
2022/07/31 07:36:05;;;;;;;2.67;2.40;;;23.30;83.60;;;;;;5025301;28;20456;-85
2022/07/31 07:38:32;;;;;;;4.10;2.40;;;23.30;83.80;;;;;;5048471;28;20460;-86
2022/07/31 07:40:59;;;;;;;4.00;2.53;;;23.30;83.90;;;;;;5052055;28;21268;-85
2022/07/31 07:43:26;;;;;;;6.50;2.80;;;23.20;83.90;;;;;;5042579;28;20463;-86
2022/07/31 07:45:52;;;;;;;3.07;2.77;;;23.20;84.20;;;;;;5052978;28;20453;-84
2022/07/31 07:48:19;;;;;;;2.53;2.33;;;23.20;84.10;;;;;;5054607;28;20451;-85
2022/07/31 07:50:46;;;;;;;4.77;2.50;;;23.20;84.10;;;;;;5056445;28;20461;-86
2022/07/31 07:53:13;;;;;;;3.47;2.70;;;23.40;83.60;;;;;;5053715;28;20532;-87
2022/07/31 07:55:40;;;;;;;3.70;2.13;;;23.40;83.10;;;;;;5027090;28;20465;-85
2022/07/31 07:58:07;;;;;;;5.03;2.27;;;23.30;83.60;;;;;;5040772;28;20459;-83
2022/07/31 08:00:38;;;;;;;3.57;2.43;;;23.40;83.80;;;;;;5033738;28;20950;-84
2022/07/31 08:03:05;;;;;;;2.20;2.00;;;23.40;82.70;;;;;;5035526;28;20477;-84
2022/07/31 08:05:52;;;;;;;2.57;2.37;;;23.40;82.40;;;;;;5030176;28;20454;-84
2022/07/31 08:08:19;;;;;;;2.20;2.00;;;23.80;81.60;;;;;;5031582;28;20458;-83
2022/07/31 08:10:46;;;;;;;2.80;2.40;;;24.30;79.30;;;;;;5028814;28;20478;-87
2022/07/31 08:13:13;;;;;;;2.40;2.20;;;24.30;78.60;;;;;;5037853;28;20523;-84
2022/07/31 08:15:49;;;;;;;2.83;2.00;;;24.80;78.20;;;;;;5037389;28;20445;-85
2022/07/31 08:18:19;;;;;;;2.10;1.80;;;25.40;75.80;;;;;;5042844;28;20568;-85
2022/07/31 08:20:48;;;;;;;3.90;1.80;;;25.50;74.50;;;;;;5037427;28;20465;-87
2022/07/31 08:23:16;;;;;;;2.40;2.20;;;25.10;75.60;;;;;;5030259;28;20485;-87
2022/07/31 08:25:43;;;;;;;4.83;1.80;;;25.00;76.30;;;;;;5048137;28;20444;-86
2022/07/31 08:28:10;;;;;;;1.83;1.73;;;25.30;76.10;;;;;;5043634;28;20460;-86
2022/07/31 08:30:39;;;;;;;2.40;2.00;;;25.00;76.10;;;;;;5044994;28;20544;-86
2022/07/31 08:33:06;;;;;;;1.80;1.70;;;25.10;77.80;;;;;;5039038;28;20484;-85
2022/07/31 08:35:38;;;;;;;1.93;1.70;;;26.00;75.10;;;;;;5040302;28;20465;-86
2022/07/31 08:38:05;;;;;;;3.60;2.10;;;27.10;71.10;;;;;;5040099;28;20445;-85
2022/07/31 08:40:31;;;;;;;1.50;1.40;;;28.00;67.10;;;;;;5043880;28;20445;-88
2022/07/31 08:43:03;;;;;;;1.50;1.40;;;28.50;64.40;;;;;;5049097;28;20469;-87
2022/07/31 08:45:36;;;;;;;1.40;1.30;;;28.70;63.70;;;;;;5072885;28;20444;-87
2022/07/31 08:48:08;;;;;;;1.30;1.30;;;28.60;63.10;;;;;;5054679;28;20441;-86
2022/07/31 08:50:38;;;;;;;1.87;1.63;;;27.90;64.80;;;;;;5058101;28;20456;-84
2022/07/31 08:53:06;;;;;;;1.53;1.20;;;27.80;66.00;;;;;;5052499;28;20481;-85
2022/07/31 08:55:34;;;;;;;1.87;1.77;;;27.70;65.60;;;;;;5052880;28;20452;-85
2022/07/31 08:58:20;;;;;;;2.00;1.53;;;27.20;67.70;;;;;;5033248;28;21000;-85
2022/07/31 09:00:47;;;;;;;2.63;1.73;;;27.60;68.10;;;;;;5041471;28;20619;-85
2022/07/31 09:03:14;;;;;;;1.40;1.30;;;29.60;62.60;;;;;;5027176;28;20452;-86
2022/07/31 09:05:41;;;;;;;2.70;1.00;;;30.50;58.80;;;;;;5027972;28;20467;-85
2022/07/31 09:08:08;;;;;;;0.90;0.90;;;30.20;58.80;;;;;;5049069;28;20495;-87
2022/07/31 09:10:37;;;;;;;1.37;1.17;;;30.00;58.90;;;;;;5051898;28;20461;-85
2022/07/31 09:13:17;;;;;;;2.10;1.33;;;29.10;59.60;;;;;;5044289;28;20484;-84
2022/07/31 09:15:44;;;;;;;2.07;1.93;;;27.70;63.30;;;;;;5050882;28;20444;-84
2022/07/31 09:18:20;;;;;;;1.70;1.60;;;26.90;66.90;;;;;;5047053;28;20480;-86
2022/07/31 09:21:00;;;;;;;1.77;1.30;;;26.60;70.80;;;;;;5058489;28;20538;-86
2022/07/31 09:23:28;;;;;;;1.30;1.20;;;26.10;72.60;;;;;;5047828;28;20422;-87
2022/07/31 09:26:04;;;;;;;1.30;1.20;;;25.80;73.40;;;;;;5051083;28;20459;-86
2022/07/31 09:28:39;;;;;;;1.43;1.33;;;25.60;73.60;;;;;;5048487;28;20533;-87
2022/07/31 09:31:09;;;;;;;1.90;1.43;;;25.50;73.70;;;;;;5151258;22;20444;-86
2022/07/31 09:33:39;;;;;;;3.27;1.60;;;25.50;74.00;;;;;;5036805;28;20528;-86
2022/07/31 09:36:12;;;;;;;1.30;1.20;;;25.70;74.20;;;;;;5035396;28;20440;-86
2022/07/31 09:38:43;;;;;;;1.30;1.20;;;26.00;73.50;;;;;;5031955;28;20449;-85
2022/07/31 09:41:20;;;;;;;1.50;1.40;;;26.70;71.30;;;;;;5053043;28;20461;-85
2022/07/31 09:44:07;;;;;;;1.63;1.53;;;27.30;68.20;;;;;;5033222;28;20441;-87
2022/07/31 09:46:43;;;;;;;2.30;2.10;;;27.20;67.70;;;;;;5040638;28;20991;-86
2022/07/31 09:49:11;;;;;;;1.20;1.10;;;27.40;67.80;;;;;;5032684;28;20458;-87
2022/07/31 09:51:43;;;;;;;2.07;1.40;;;28.20;65.70;;;;;;5035735;28;20489;-85
2022/07/31 09:54:21;;;;;;;2.50;2.30;;;28.50;63.60;;;;;;5022268;28;20929;-86
2022/07/31 09:56:48;;;;;;;1.87;1.40;;;28.30;63.20;;;;;;5022656;28;20457;-86
2022/07/31 09:59:16;;;;;;;2.93;1.23;;;28.10;64.10;;;;;;5016914;28;20958;-85
2022/07/31 10:01:44;;;;;;;1.53;1.33;;;28.30;64.10;;;;;;5040342;28;20492;-89
2022/07/31 10:04:12;;;;;;;1.63;1.50;;;28.70;62.60;;;;;;5023794;28;20426;-88
2022/07/31 10:06:40;;;;;;;1.50;1.40;;;28.40;63.30;;;;;;5052766;28;20467;-88
2022/07/31 10:09:07;;;;;;;1.70;1.30;;;28.90;62.60;;;;;;5035168;28;20449;-87
2022/07/31 10:11:37;;;;;;;1.40;1.30;;;28.80;61.80;;;;;;5025575;28;20591;-87
2022/07/31 10:14:06;;;;;;;2.80;1.83;;;28.60;62.80;;;;;;5015789;28;20547;-87
2022/07/31 10:16:38;;;;;;;1.30;1.20;;;28.70;62.70;;;;;;5034210;28;20446;-84
2022/07/31 10:19:10;;;;;;;2.30;2.10;;;28.80;61.70;;;;;;5022702;28;20465;-85
2022/07/31 10:21:41;;;;;;;2.00;1.90;;;28.00;63.20;;;;;;5023029;28;20999;-85
2022/07/31 10:24:09;;;;;;;2.50;1.63;;;27.70;64.30;;;;;;5014677;28;20969;-84
2022/07/31 10:26:36;;;;;;;4.40;1.50;;;27.40;64.60;;;;;;5029382;28;20458;-84
2022/07/31 10:29:25;;;;;;;1.57;1.47;;;27.10;65.70;;;;;;5016337;28;20460;-85
2022/07/31 10:31:52;;;;;;;1.73;1.63;;;26.80;66.30;;;;;;5029336;28;20476;-84
2022/07/31 10:34:20;;;;;;;2.53;1.57;;;26.80;66.70;;;;;;5039698;28;20453;-85
2022/07/31 10:36:49;;;;;;;1.77;1.30;;;26.70;67.00;;;;;;5037527;28;20443;-84
2022/07/31 10:39:42;;;;;;;1.60;1.43;;;26.90;65.70;;;;;;5045808;28;20454;-88
2022/07/31 10:42:09;;;;;;;1.50;1.20;;;26.90;63.60;;;;;;5005228;28;20488;-83
2022/07/31 10:44:45;;;;;;;4.00;2.30;;;26.90;61.50;;;;;;5023743;28;20455;-90
2022/07/31 10:47:14;;;;;;;2.13;1.60;;;27.40;61.80;;;;;;5041475;28;20480;-88
2022/07/31 10:49:45;;;;;;;1.50;1.40;;;27.60;61.90;;;;;;5035114;28;20528;-83
2022/07/31 10:52:11;;;;;;;2.27;1.43;;;28.00;62.10;;;;;;5038865;28;20485;-83
2022/07/31 10:54:45;;;;;;;1.43;1.33;;;28.60;61.20;;;;;;5018113;28;20524;-84
2022/07/31 10:57:28;;;;;;;2.07;1.40;;;30.20;57.70;;;;;;5028542;28;20456;-86
2022/07/31 10:59:55;;;;;;;2.00;1.87;;;30.50;56.00;;;;;;5025016;28;20473;-85
2022/07/31 11:02:33;;;;;;;1.40;1.30;;;30.20;56.30;;;;;;5018617;28;20593;-84
2022/07/31 11:05:14;;;;;;;1.70;1.23;;;29.60;57.20;;;;;;5030643;28;20476;-86
2022/07/31 11:07:44;;;;;;;1.40;1.30;;;29.10;55.70;;;;;;5008134;28;20484;-85
2022/07/31 11:10:19;;;;;;;2.83;1.60;;;28.70;56.80;;;;;;5015965;28;20541;-84
2022/07/31 11:13:00;;;;;;;1.43;1.23;;;28.80;56.90;;;;;;5025695;28;20576;-85
2022/07/31 11:15:27;;;;;;;2.63;1.17;;;29.00;57.60;;;;;;5016479;28;20449;-85
2022/07/31 11:17:55;;;;;;;1.83;1.40;;;29.40;56.80;;;;;;5023023;28;20454;-82
2022/07/31 11:20:45;;;;;;;2.03;1.57;;;31.50;51.60;;;;;;5029141;28;20446;-87
2022/07/31 11:23:15;;;;;;;2.30;1.27;;;31.30;51.90;;;;;;5022454;28;20457;-85
2022/07/31 11:25:44;;;;;;;2.70;1.13;;;30.70;52.40;;;;;;5025932;28;20541;-85
2022/07/31 11:28:23;;;;;;;2.23;2.10;;;30.20;52.80;;;;;;5020061;28;20473;-84
2022/07/31 11:30:52;;;;;;;3.60;1.60;;;29.70;54.20;;;;;;5024984;28;20489;-86
2022/07/31 11:33:30;;;;;;;3.27;1.80;;;29.60;55.50;;;;;;4986756;28;20505;-86
2022/07/31 11:36:28;;;;;;;2.07;1.53;;;29.80;55.20;;;;;;5016350;28;20457;-86
2022/07/31 11:38:55;;;;;;;2.90;1.43;;;29.70;55.00;;;;;;5023266;28;20538;-86
2022/07/31 11:41:31;;;;;;;2.90;2.13;;;30.00;54.60;;;;;;5023233;28;20549;-84
2022/07/31 11:44:44;;;;;;;1.93;1.73;;;29.90;54.90;;;;;;5040190;28;20913;-86
2022/07/31 11:47:16;;;;;;;2.27;1.60;;;29.70;54.90;;;;;;5005641;28;20521;-83
2022/07/31 11:50:02;;;;;;;2.30;1.60;;;29.40;54.10;;;;;;5031962;28;20436;-85
2022/07/31 11:52:31;;;;;;;2.10;1.50;;;29.10;54.90;;;;;;5048273;28;20481;-84
2022/07/31 11:55:19;;;;;;;2.60;1.57;;;28.90;55.80;;;;;;5046403;28;20540;-85
2022/07/31 11:57:50;;;;;;;2.03;1.67;;;28.80;56.10;;;;;;5017058;28;20459;-87
2022/07/31 12:00:22;;;;;;;3.27;2.43;;;28.70;56.70;;;;;;5024530;28;21299;-85
2022/07/31 12:02:57;;;;;;;3.23;1.87;;;28.50;57.70;;;;;;5035279;28;20465;-84
2022/07/31 12:05:27;;;;;;;3.40;1.70;;;28.70;58.30;;;;;;5024223;28;20877;-85
2022/07/31 12:08:01;;;;;;;3.00;1.53;;;29.10;57.90;;;;;;5040135;28;20456;-85
2022/07/31 12:10:31;;;;;;;1.93;1.20;;;30.30;56.30;;;;;;5031563;28;20458;-85
2022/07/31 12:13:10;;;;;;;2.63;1.63;;;30.50;55.00;;;;;;5027645;28;20482;-85
2022/07/31 12:16:10;;;;;;;1.30;1.20;;;30.60;54.40;;;;;;5030551;28;20461;-83
2022/07/31 12:19:08;;;;;;;1.97;1.73;;;31.10;54.00;;;;;;4975956;28;20440;-84
2022/07/31 12:21:39;;;;;;;2.10;1.50;;;31.50;52.90;;;;;;4971893;28;20523;-86
2022/07/31 12:24:30;;;;;;;1.70;1.60;;;31.30;52.80;;;;;;4972468;28;20576;-85
2022/07/31 12:27:29;;;;;;;1.60;1.50;;;30.90;53.80;;;;;;4927571;29;20941;-85
2022/07/31 12:30:18;;;;;;;2.00;1.80;;;30.90;54.40;;;;;;4924484;29;20478;-85
2022/07/31 12:32:51;;;;;;;1.93;1.50;;;32.00;53.00;;;;;;4924464;29;20492;-85
2022/07/31 12:35:36;;;;;;;2.70;1.60;;;32.10;52.40;;;;;;4922139;28;20452;-86
2022/07/31 12:38:26;;;;;;;2.10;1.97;;;31.50;53.00;;;;;;4963163;28;20985;-84
2022/07/31 12:41:42;;;;;;;;;;;;;;;;;;;;;
2022/07/31 12:44:16;;;;;;;1.90;1.63;;;30.50;55.30;;;;;;4973242;28;21177;-84
2022/07/31 12:46:47;;;;;;;1.70;1.30;;;30.50;55.50;;;;;;5005200;28;20476;-85
2022/07/31 12:49:48;;;;;;;1.70;1.60;;;30.30;55.80;;;;;;5000044;28;20482;-85
2022/07/31 12:52:38;;;;;;;1.90;1.70;;;30.20;56.30;;;;;;5017240;28;20510;-85
2022/07/31 12:55:04;;;;;;;2.67;1.73;;;30.20;56.10;;;;;;4994405;28;20448;-83
2022/07/31 12:57:43;;;;;;;2.37;1.97;;;30.30;56.40;;;;;;4994744;28;20987;-86
2022/07/31 13:00:53;;;;;;;1.93;1.83;;;30.20;56.30;;;;;;5044298;28;20455;-84
2022/07/31 13:03:43;;;;;;;1.97;1.70;;;30.20;56.60;;;;;;5032269;28;20441;-86
2022/07/31 13:06:27;;;;;;;1.87;1.77;;;30.60;55.90;;;;;;5022855;28;20446;-86
2022/07/31 13:08:58;;;;;;;3.67;2.10;;;30.70;56.00;;;;;;5040592;28;20460;-86